createdAt,value
2024-02-12T21:18:13.452Z,8.02
2024-02-12T21:20:42.535Z,11.20
2024-02-12T21:28:10.051Z,7.68
2024-02-12T21:57:57.814Z,7.82
2024-02-12T22:00:25.676Z,7.95
2024-02-12T22:02:55.027Z,7.90
2024-02-12T22:05:25.294Z,7.45
2024-02-12T22:07:53.228Z,8.52
2024-02-12T22:10:21.089Z,7.22
2024-02-12T22:12:49.053Z,8.02
2024-02-12T22:15:16.769Z,8.27
2024-02-12T22:17:44.734Z,8.57
2024-02-12T22:44:52.302Z,10.50
2024-02-12T22:47:20.158Z,97.47
2024-02-12T22:49:50.018Z,100.22
2024-02-12T22:52:19.406Z,47.47
2024-02-12T22:54:47.206Z,56.08
2024-02-12T22:59:43.058Z,80.65
2024-02-12T23:02:11.567Z,72.47
2024-02-12T23:04:41.158Z,72.90
2024-02-12T23:07:08.962Z,72.28
2024-02-12T23:09:37.213Z,71.75
2024-02-12T23:12:05.873Z,72.50
2024-02-12T23:14:33.709Z,72.88
2024-02-12T23:17:01.559Z,72.60
2024-02-12T23:19:29.345Z,72.20
2024-02-12T23:21:57.555Z,71.65
2024-02-12T23:24:25.922Z,70.75
2024-02-12T23:26:54.029Z,69.97
2024-02-12T23:29:24.120Z,70.28
2024-02-12T23:31:51.874Z,70.93
2024-02-12T23:34:19.828Z,71.38
2024-02-12T23:36:47.700Z,72.63
2024-02-12T23:39:15.450Z,71.75
2024-02-12T23:41:43.161Z,73.47
2024-02-12T23:44:12.810Z,73.57
2024-02-12T23:46:40.886Z,74.53
2024-02-12T23:49:08.666Z,72.25
2024-02-12T23:51:36.378Z,74.05
2024-02-12T23:54:04.105Z,75.60
2024-02-12T23:56:33.147Z,69.43
2024-02-12T23:59:01.000Z,70.55
